createdAt,value
2019-05-12T00:00:40.588Z,100641.96
2019-05-12T00:03:12.011Z,100642.20
2019-05-12T00:05:42.596Z,100642.20
2019-05-12T00:08:13.379Z,100648.82
2019-05-12T00:10:44.209Z,100657.05
2019-05-12T00:13:14.644Z,100658.75
2019-05-12T00:15:45.133Z,100663.56
2019-05-12T00:18:18.075Z,100660.28
2019-05-12T00:20:48.093Z,100663.94
2019-05-12T00:23:24.949Z,100660.78
2019-05-12T00:25:50.737Z,100673.20
2019-05-12T00:28:21.173Z,100673.81
2019-05-12T00:30:52.346Z,100682.36
2019-05-12T00:33:22.770Z,100679.84
2019-05-12T00:35:53.200Z,100688.19
2019-05-12T00:38:24.413Z,100687.68
2019-05-12T00:40:55.212Z,100692.25
2019-05-12T00:43:27.927Z,100694.77
2019-05-12T00:45:58.823Z,100703.12
2019-05-12T00:48:29.640Z,100709.13
2019-05-12T00:51:00.076Z,100715.52
2019-05-12T00:53:39.614Z,100720.50
2019-05-12T00:56:03.077Z,100726.38
2019-05-12T00:58:34.839Z,100723.85
2019-05-12T01:01:07.977Z,100722.34
2019-05-12T01:03:38.221Z,100731.27
2019-05-12T01:06:08.868Z,100731.82
2019-05-12T01:08:39.347Z,100729.28
2019-05-12T01:11:10.092Z,100733.95
2019-05-12T01:13:40.517Z,100734.29
2019-05-12T01:16:10.998Z,100742.89
2019-05-12T01:18:41.748Z,100741.10
2019-05-12T01:21:12.645Z,100750.48
2019-05-12T01:23:53.814Z,100750.86
2019-05-12T01:26:17.707Z,100748.90
2019-05-12T01:28:48.765Z,100752.48
2019-05-12T01:31:21.724Z,100758.69
2019-05-12T01:33:52.156Z,100760.31
2019-05-12T01:36:22.812Z,100763.46
2019-05-12T01:38:53.620Z,100759.24
2019-05-12T01:41:24.442Z,100769.58
2019-05-12T01:43:54.916Z,100769.81
2019-05-12T01:46:25.730Z,100781.44
2019-05-12T01:48:58.930Z,100781.81
2019-05-12T01:51:29.118Z,100790.16
2019-05-12T01:54:10.973Z,100803.48
2019-05-12T01:56:31.678Z,100807.23
2019-05-12T01:59:02.149Z,100810.91
2019-05-12T02:01:33.832Z,100814.75
2019-05-12T02:04:04.554Z,100816.72
2019-05-12T02:06:34.984Z,100822.79
2019-05-12T02:09:08.872Z,100825.25
2019-05-12T02:11:39.645Z,100825.71
2019-05-12T02:14:10.075Z,100829.31
2019-05-12T02:16:40.516Z,100838.23
2019-05-12T02:19:11.344Z,100847.37
2019-05-12T02:21:41.773Z,100850.25
2019-05-12T02:24:23.469Z,100849.98
2019-05-12T02:26:44.680Z,100855.45
2019-05-12T02:29:15.111Z,100859.89
2019-05-12T02:31:45.542Z,100858.30
2019-05-12T02:34:16.109Z,100867.02
2019-05-12T02:36:47.231Z,100867.97
2019-05-12T02:39:17.648Z,100873.01
2019-05-12T02:41:48.781Z,100871.48
2019-05-12T02:44:19.485Z,100878.54
2019-05-12T02:46:49.926Z,100884.61
2019-05-12T02:49:20.399Z,100883.84
2019-05-12T02:51:50.830Z,100896.39
2019-05-12T02:54:27.014Z,100893.17
2019-05-12T02:56:57.086Z,100901.48
2019-05-12T02:59:30.223Z,100900.53
2019-05-12T03:02:05.164Z,100903.33
2019-05-12T03:04:35.559Z,100906.20
2019-05-12T03:07:06.653Z,100917.30
2019-05-12T03:09:39.369Z,100919.09
2019-05-12T03:12:09.962Z,100922.13
2019-05-12T03:14:41.242Z,100926.78
2019-05-12T03:17:15.354Z,100931.63
2019-05-12T03:19:45.443Z,100932.79
2019-05-12T03:22:16.550Z,100931.86
2019-05-12T03:25:05.988Z,100934.58
2019-05-12T03:27:19.899Z,100940.54
2019-05-12T03:29:50.593Z,100939.39
2019-05-12T03:32:26.666Z,100940.28
2019-05-12T03:34:57.828Z,100943.10
2019-05-12T03:37:30.923Z,100948.34
2019-05-12T03:39:58.618Z,100950.16
2019-05-12T03:42:29.047Z,100951.21
2019-05-12T03:44:59.829Z,100952.91
2019-05-12T03:47:30.314Z,100960.77
2019-05-12T03:50:04.357Z,100961.72
2019-05-12T03:52:34.961Z,100971.97
2019-05-12T03:55:06.024Z,100968.48
2019-05-12T03:57:36.460Z,100971.69
2019-05-12T04:00:07.340Z,100981.25
2019-05-12T04:02:38.162Z,100985.52
2019-05-12T04:05:09.099Z,100985.86
2019-05-12T04:07:39.844Z,100987.19
2019-05-12T04:10:14.775Z,100993.37
2019-05-12T04:12:45.027Z,100993.47
2019-05-12T04:15:16.039Z,101005.16
2019-05-12T04:17:47.487Z,101005.99
2019-05-12T04:20:17.902Z,101016.39
2019-05-12T04:22:48.378Z,101015.98
2019-05-12T04:25:18.810Z,101015.31
2019-05-12T04:27:49.687Z,101021.28
2019-05-12T04:30:20.873Z,101024.49
2019-05-12T04:32:51.302Z,101030.84
2019-05-12T04:35:24.876Z,101031.38
2019-05-12T04:37:55.355Z,101038.28
2019-05-12T04:40:26.094Z,101046.97
2019-05-12T04:42:56.513Z,101050.13
2019-05-12T04:45:27.414Z,101052.44
2019-05-12T04:47:58.173Z,101052.42
2019-05-12T04:50:28.609Z,101060.66
2019-05-12T04:52:59.098Z,101066.97
2019-05-12T04:55:29.859Z,101065.42
2019-05-12T04:58:00.298Z,101066.84
2019-05-12T05:00:34.472Z,101066.95
2019-05-12T05:03:05.040Z,101076.28
2019-05-12T05:05:36.369Z,101082.14
2019-05-12T05:08:06.922Z,101081.95
2019-05-12T05:10:37.981Z,101089.38
2019-05-12T05:13:08.753Z,101087.27
2019-05-12T05:15:39.248Z,101093.30
2019-05-12T05:18:09.669Z,101100.23
2019-05-12T05:20:40.091Z,101105.00
2019-05-12T05:23:10.924Z,101106.59
2019-05-12T05:25:43.455Z,101109.60
2019-05-12T05:28:14.668Z,101109.00
2019-05-12T05:30:46.092Z,101120.86
2019-05-12T05:33:19.702Z,101127.47
2019-05-12T05:35:49.339Z,101139.05
2019-05-12T05:38:20.940Z,101133.06
2019-05-12T05:40:53.988Z,101139.30
2019-05-12T05:43:24.277Z,101141.40
2019-05-12T05:46:02.644Z,101148.87
2019-05-12T05:48:27.361Z,101151.69
2019-05-12T05:50:59.913Z,101159.76
2019-05-12T05:53:30.299Z,101160.98
2019-05-12T05:56:01.056Z,101159.50
2019-05-12T05:58:33.776Z,101157.68
2019-05-12T06:01:07.766Z,101168.96
2019-05-12T06:03:36.142Z,101173.80
2019-05-12T06:06:12.171Z,101167.44
2019-05-12T06:08:39.455Z,101170.08
2019-05-12T06:11:14.688Z,101175.79
2019-05-12T06:13:44.333Z,101174.58
2019-05-12T06:16:20.390Z,101180.55
2019-05-12T06:18:47.106Z,101183.44
2019-05-12T06:21:18.323Z,101183.14
2019-05-12T06:23:49.237Z,101183.55
2019-05-12T06:26:21.029Z,101185.13
2019-05-12T06:28:55.942Z,101185.25
2019-05-12T06:31:29.623Z,101186.98
2019-05-12T06:33:56.791Z,101187.20
2019-05-12T06:36:28.039Z,101192.27
2019-05-12T06:38:58.840Z,101195.70
2019-05-12T06:41:29.953Z,101195.41
2019-05-12T06:44:00.372Z,101199.64
2019-05-12T06:46:31.272Z,101201.97
2019-05-12T06:49:10.132Z,101207.42
2019-05-12T06:51:34.084Z,101216.54
2019-05-12T06:54:07.411Z,101210.21
2019-05-12T06:56:36.760Z,101211.18
2019-05-12T06:59:11.672Z,101217.02
2019-05-12T07:01:39.373Z,101214.64
2019-05-12T07:04:10.259Z,101218.47
2019-05-12T07:06:41.090Z,101209.36
2019-05-12T07:09:16.390Z,101214.70
2019-05-12T07:11:52.983Z,101212.73
2019-05-12T07:14:22.410Z,101225.12
2019-05-12T07:17:01.394Z,101229.96
2019-05-12T07:19:25.710Z,101229.33
2019-05-12T07:22:00.105Z,101235.12
2019-05-12T07:24:29.497Z,101237.47
2019-05-12T07:27:04.407Z,101234.22
2019-05-12T07:29:34.219Z,101245.32
2019-05-12T07:32:07.223Z,101245.73
2019-05-12T07:34:37.161Z,101251.89
2019-05-12T07:37:07.986Z,101248.33
2019-05-12T07:39:47.866Z,101244.95
2019-05-12T07:42:13.423Z,101239.06
2019-05-12T07:44:45.178Z,101243.58
2019-05-12T07:47:19.197Z,101253.59
2019-05-12T07:49:47.777Z,101260.10
2019-05-12T07:52:18.229Z,101264.85
2019-05-12T07:54:48.968Z,101267.53
2019-05-12T07:57:20.026Z,101268.41
2019-05-12T07:59:50.502Z,101274.52
2019-05-12T08:02:25.519Z,101278.48
2019-05-12T08:04:54.188Z,101280.09
2019-05-12T08:07:28.817Z,101285.08
2019-05-12T08:09:57.513Z,101291.64
2019-05-12T08:12:28.243Z,101282.54
2019-05-12T08:15:04.281Z,101291.27
2019-05-12T08:17:33.532Z,101297.00
2019-05-12T08:20:05.137Z,101284.54
2019-05-12T08:22:36.796Z,101285.87
2019-05-12T08:25:07.956Z,101289.00
2019-05-12T08:27:39.250Z,101287.33
2019-05-12T08:30:13.655Z,101270.73
2019-05-12T08:32:44.357Z,101279.34
2019-05-12T08:35:25.539Z,101278.09
2019-05-12T08:37:48.766Z,101276.56
2019-05-12T08:40:19.578Z,101282.46
2019-05-12T08:42:50.027Z,101289.11
2019-05-12T08:45:27.436Z,101285.73
2019-05-12T08:47:54.631Z,101287.84
2019-05-12T08:50:31.729Z,101276.47
2019-05-12T08:52:57.300Z,101271.78
2019-05-12T08:55:31.424Z,101270.19
2019-05-12T08:57:59.862Z,101283.53
2019-05-12T09:00:39.422Z,101281.97
2019-05-12T09:03:08.347Z,101281.56
2019-05-12T09:05:39.550Z,101283.89
2019-05-12T09:08:10.025Z,101282.24
2019-05-12T09:10:40.462Z,101286.96
2019-05-12T09:13:10.888Z,101288.20
2019-05-12T09:15:43.776Z,101282.94
2019-05-12T09:18:14.676Z,101292.52
2019-05-12T09:20:50.728Z,101286.34
2019-05-12T09:23:17.631Z,101285.64
2019-05-12T09:25:48.460Z,101294.58
2019-05-12T09:28:19.401Z,101290.80
2019-05-12T09:30:49.883Z,101287.63
2019-05-12T09:33:21.526Z,101290.95
2019-05-12T09:35:54.041Z,101298.13
2019-05-12T09:38:26.384Z,101302.07
2019-05-12T09:41:01.366Z,101305.59
2019-05-12T09:43:29.601Z,101295.83
2019-05-12T09:46:00.085Z,101302.02
2019-05-12T09:48:30.906Z,101306.14
2019-05-12T09:51:04.278Z,101307.02
2019-05-12T09:53:34.109Z,101312.73
2019-05-12T09:56:04.741Z,101315.62
2019-05-12T09:58:36.156Z,101303.19
2019-05-12T10:01:06.745Z,101312.21
2019-05-12T10:03:39.995Z,101312.09
2019-05-12T10:06:11.457Z,101315.20
2019-05-12T10:08:43.424Z,101318.34
2019-05-12T10:11:16.555Z,101316.88
2019-05-12T10:13:46.065Z,101323.17
2019-05-12T10:16:16.873Z,101311.27
2019-05-12T10:18:51.108Z,101325.12
2019-05-12T10:21:19.929Z,101322.74
2019-05-12T10:24:00.132Z,101323.95
2019-05-12T10:26:23.960Z,101323.81
2019-05-12T10:28:58.392Z,101317.84
2019-05-12T10:31:29.478Z,101323.80
2019-05-12T10:34:19.233Z,101331.83
2019-05-12T10:36:50.488Z,101331.58
2019-05-12T10:39:20.920Z,101323.59
2019-05-12T10:41:51.397Z,101330.07
2019-05-12T10:44:22.233Z,101324.20
2019-05-12T10:46:55.627Z,101323.63
2019-05-12T10:49:26.125Z,101334.30
2019-05-12T10:51:56.575Z,101338.91
2019-05-12T10:54:27.747Z,101345.87
2019-05-12T10:56:58.658Z,101341.14
2019-05-12T10:59:33.140Z,101350.30
2019-05-12T11:02:03.544Z,101346.33
2019-05-12T11:04:38.988Z,101346.36
2019-05-12T11:07:06.983Z,101345.44
2019-05-12T11:09:37.426Z,101344.30
2019-05-12T11:12:07.927Z,101342.86
2019-05-12T11:14:38.380Z,101348.66
2019-05-12T11:17:10.199Z,101345.98
2019-05-12T11:19:49.298Z,101348.38
2019-05-12T11:22:13.986Z,101362.89
2019-05-12T11:24:44.619Z,101356.04
2019-05-12T11:27:15.913Z,101364.14
2019-05-12T11:29:49.481Z,101354.42
2019-05-12T11:32:18.778Z,101352.58
2019-05-12T11:34:49.301Z,101359.26
2019-05-12T11:37:19.743Z,101356.20
2019-05-12T11:39:50.256Z,101371.17
2019-05-12T11:42:21.148Z,101365.59
2019-05-12T11:44:52.241Z,101365.91
2019-05-12T11:47:25.851Z,101364.89
2019-05-12T11:49:58.465Z,101367.23
2019-05-12T11:52:28.193Z,101371.82
2019-05-12T11:54:58.634Z,101367.38
2019-05-12T11:57:30.350Z,101376.69
2019-05-12T12:00:02.236Z,101369.12
2019-05-12T12:02:34.251Z,101370.27
2019-05-12T12:05:05.315Z,101374.74
2019-05-12T12:07:38.904Z,101377.42
2019-05-12T12:10:08.331Z,101379.63
2019-05-12T12:12:39.511Z,101374.45
2019-05-12T12:15:13.651Z,101392.14
2019-05-12T12:17:44.135Z,101386.84
2019-05-12T12:20:22.273Z,101387.39
2019-05-12T12:22:48.915Z,101385.64
2019-05-12T12:25:23.803Z,101395.02
2019-05-12T12:27:55.289Z,101392.46
2019-05-12T12:30:26.898Z,101393.50
2019-05-12T12:33:00.370Z,101391.13
2019-05-12T12:35:29.519Z,101393.00
2019-05-12T12:37:59.977Z,101392.32
2019-05-12T12:40:30.776Z,101392.32
2019-05-12T12:43:03.690Z,101392.14
2019-05-12T12:45:40.454Z,101396.52
2019-05-12T12:48:13.557Z,101393.47
2019-05-12T12:50:44.531Z,101411.05
2019-05-12T12:53:15.157Z,101412.59
2019-05-12T12:55:46.311Z,101411.49
2019-05-12T12:58:21.221Z,101411.67
2019-05-12T13:00:53.783Z,101403.97
2019-05-12T13:03:25.721Z,101392.83
2019-05-12T13:05:54.311Z,101387.30
2019-05-12T13:08:25.571Z,101387.16
2019-05-12T13:10:56.034Z,101396.30
2019-05-12T13:13:26.770Z,101399.30
2019-05-12T13:15:57.285Z,101396.89
2019-05-12T13:18:32.870Z,101404.41
2019-05-12T13:21:03.223Z,101409.10
2019-05-12T13:23:40.499Z,101405.58
2019-05-12T13:26:05.209Z,101411.41
2019-05-12T13:28:35.925Z,101406.03
2019-05-12T13:31:12.832Z,101417.67
2019-05-12T13:33:39.208Z,101419.98
2019-05-12T13:36:09.658Z,101421.13
2019-05-12T13:38:40.748Z,101418.17
2019-05-12T13:41:15.948Z,101428.31
2019-05-12T13:43:43.900Z,101438.47
2019-05-12T13:46:14.451Z,101426.61
2019-05-12T13:48:49.756Z,101426.61
2019-05-12T13:51:17.749Z,101426.31
2019-05-12T13:53:50.302Z,101419.91
2019-05-12T13:56:25.834Z,101427.14
2019-05-12T13:58:53.977Z,101426.54
2019-05-12T14:01:25.157Z,101423.37
2019-05-12T14:03:56.034Z,101432.31
2019-05-12T14:06:31.994Z,101429.72
2019-05-12T14:08:58.600Z,101450.33
2019-05-12T14:11:29.076Z,101461.41
2019-05-12T14:14:00.249Z,101456.09
2019-05-12T14:16:31.081Z,101460.85
2019-05-12T14:19:03.605Z,101453.28
2019-05-12T14:21:41.236Z,101461.16
2019-05-12T14:24:05.945Z,101462.23
2019-05-12T14:26:39.411Z,101454.43
2019-05-12T14:29:08.525Z,101458.72
2019-05-12T14:31:48.476Z,101461.94
2019-05-12T14:34:18.733Z,101467.90
2019-05-12T14:36:43.763Z,101468.12
2019-05-12T14:39:14.200Z,101463.59
2019-05-12T14:41:53.064Z,101461.41
2019-05-12T14:44:17.837Z,101467.27
2019-05-12T14:46:50.641Z,101458.11
2019-05-12T14:49:28.525Z,101472.12
2019-05-12T14:51:53.750Z,101468.27
2019-05-12T14:54:24.216Z,101468.78
2019-05-12T14:56:57.754Z,101465.33
2019-05-12T14:59:30.211Z,101476.69
2019-05-12T15:02:03.267Z,101468.09
2019-05-12T15:04:32.161Z,101471.34
2019-05-12T15:07:08.017Z,101470.66
2019-05-12T15:09:36.885Z,101471.98
2019-05-12T15:12:07.339Z,101477.84
2019-05-12T15:14:38.318Z,101473.28
2019-05-12T15:17:13.830Z,101469.52
2019-05-12T15:19:43.864Z,101479.31
2019-05-12T15:22:14.792Z,101470.50
2019-05-12T15:24:49.218Z,101471.73
2019-05-12T15:27:17.612Z,101470.26
2019-05-12T15:29:50.091Z,101476.12
2019-05-12T15:32:20.272Z,101486.16
2019-05-12T15:34:50.702Z,101490.69
2019-05-12T15:37:23.767Z,101487.67
2019-05-12T15:39:54.066Z,101483.22
2019-05-12T15:42:24.891Z,101474.87
2019-05-12T15:44:56.616Z,101475.78
2019-05-12T15:47:29.925Z,101475.22
2019-05-12T15:49:59.373Z,101482.95
2019-05-12T15:52:38.272Z,101490.25
2019-05-12T15:55:04.738Z,101492.81
2019-05-12T15:57:37.332Z,101494.59
2019-05-12T16:00:08.044Z,101493.05
2019-05-12T16:02:39.814Z,101490.96
2019-05-12T16:05:10.330Z,101496.34
2019-05-12T16:07:43.610Z,101495.98
2019-05-12T16:10:14.826Z,101489.52
2019-05-12T16:12:45.318Z,101488.66
2019-05-12T16:15:19.132Z,101491.06
2019-05-12T16:17:48.499Z,101501.63
2019-05-12T16:20:20.134Z,101504.44
2019-05-12T16:22:53.169Z,101507.73
2019-05-12T16:25:29.055Z,101511.73
2019-05-12T16:27:56.187Z,101510.91
2019-05-12T16:30:27.342Z,101509.52
2019-05-12T16:32:58.414Z,101510.47
2019-05-12T16:35:31.816Z,101516.80
2019-05-12T16:38:05.910Z,101518.50
2019-05-12T16:40:34.506Z,101518.20
2019-05-12T16:43:06.438Z,101520.61
2019-05-12T16:45:36.967Z,101517.56
2019-05-12T16:48:11.330Z,101521.48
2019-05-12T16:50:40.501Z,101526.73
2019-05-12T16:53:13.403Z,101528.17
2019-05-12T16:55:48.483Z,101531.72
2019-05-12T16:58:15.688Z,101531.77
2019-05-12T17:00:49.737Z,101534.47
2019-05-12T17:03:18.881Z,101545.31
2019-05-12T17:05:50.175Z,101544.20
2019-05-12T17:08:23.876Z,101548.64
2019-05-12T17:11:00.895Z,101552.80
2019-05-12T17:13:27.643Z,101554.88
2019-05-12T17:16:00.131Z,101554.59
2019-05-12T17:18:33.725Z,101555.36
2019-05-12T17:21:04.432Z,101554.70
2019-05-12T17:23:38.997Z,101556.77
2019-05-12T17:26:09.448Z,101558.44
2019-05-12T17:28:40.097Z,101561.71
2019-05-12T17:31:10.528Z,101564.61
2019-05-12T17:33:43.284Z,101563.96
2019-05-12T17:36:17.568Z,101569.55
2019-05-12T17:38:51.062Z,101569.59
2019-05-12T17:41:18.914Z,101573.41
2019-05-12T17:43:59.573Z,101574.34
2019-05-12T17:46:24.377Z,101569.12
2019-05-12T17:48:55.219Z,101575.54
2019-05-12T17:51:30.795Z,101580.69
2019-05-12T17:53:59.047Z,101585.18
2019-05-12T17:56:36.677Z,101588.23
2019-05-12T17:59:04.374Z,101593.09
2019-05-12T18:01:35.702Z,101600.35
2019-05-12T18:04:06.072Z,101597.61
2019-05-12T18:06:36.833Z,101602.25
2019-05-12T18:09:14.933Z,101596.09
2019-05-12T18:11:46.303Z,101606.98
2019-05-12T18:14:17.573Z,101605.20
2019-05-12T18:16:53.941Z,101615.61
2019-05-12T18:19:20.572Z,101621.97
2019-05-12T18:21:54.900Z,101617.86
2019-05-12T18:24:24.334Z,101619.61
2019-05-12T18:27:02.149Z,101620.03
2019-05-12T18:29:28.217Z,101624.84
2019-05-12T18:31:59.510Z,101631.19
2019-05-12T18:34:30.891Z,101636.83
2019-05-12T18:37:01.386Z,101635.16
2019-05-12T18:39:34.333Z,101639.55
2019-05-12T18:42:04.689Z,101636.30
2019-05-12T18:44:35.842Z,101648.75
2019-05-12T18:47:06.297Z,101659.98
2019-05-12T18:49:42.095Z,101663.42
2019-05-12T18:52:14.403Z,101663.69
2019-05-12T18:54:52.245Z,101663.22
2019-05-12T18:57:16.833Z,101661.80
2019-05-12T18:59:54.274Z,101670.55
2019-05-12T19:02:23.554Z,101670.83
2019-05-12T19:04:53.845Z,101672.27
2019-05-12T19:07:38.979Z,101674.27
2019-05-12T19:09:59.174Z,101683.98
2019-05-12T19:12:32.624Z,101685.21
2019-05-12T19:15:04.320Z,101692.16
2019-05-12T19:17:33.960Z,101704.31
2019-05-12T19:20:05.299Z,101705.56
2019-05-12T19:22:39.362Z,101712.50
2019-05-12T19:25:08.242Z,101709.31
2019-05-12T19:27:39.060Z,101718.33
2019-05-12T19:30:09.533Z,101722.34
2019-05-12T19:32:41.145Z,101723.06
2019-05-12T19:35:15.901Z,101724.52
2019-05-12T19:37:45.323Z,101731.06
2019-05-12T19:40:17.676Z,101733.11
2019-05-12T19:42:53.841Z,101742.59
2019-05-12T19:45:24.912Z,101743.92
2019-05-12T19:47:54.997Z,101748.89
2019-05-12T19:50:25.775Z,101753.25
2019-05-12T19:52:56.279Z,101757.00
2019-05-12T19:55:26.712Z,101752.27
2019-05-12T19:57:57.167Z,101746.61
2019-05-12T20:00:27.958Z,101755.70
2019-05-12T20:02:58.753Z,101756.45
2019-05-12T20:05:30.780Z,101763.22
2019-05-12T20:08:01.283Z,101756.02
2019-05-12T20:10:44.845Z,101759.74
2019-05-12T20:13:08.979Z,101766.61
2019-05-12T20:15:41.640Z,101768.88
2019-05-12T20:18:14.724Z,101765.13
2019-05-12T20:20:46.247Z,101773.53
2019-05-12T20:23:16.699Z,101783.16
2019-05-12T20:25:49.506Z,101785.64
2019-05-12T20:28:20.925Z,101788.25
2019-05-12T20:30:54.325Z,101790.05
2019-05-12T20:33:24.191Z,101793.11
2019-05-12T20:35:54.907Z,101793.11
2019-05-12T20:38:33.940Z,101791.62
2019-05-12T20:40:58.114Z,101794.38
2019-05-12T20:43:32.404Z,101791.20
2019-05-12T20:46:03.718Z,101796.16
2019-05-12T20:48:35.323Z,101800.81
2019-05-12T20:51:08.739Z,101811.16
2019-05-12T20:53:38.249Z,101816.69
2019-05-12T20:56:12.121Z,101819.36
2019-05-12T20:58:43.570Z,101827.79
2019-05-12T21:01:13.979Z,101829.27
2019-05-12T21:03:46.363Z,101826.43
2019-05-12T21:06:18.589Z,101832.72
2019-05-12T21:08:53.952Z,101833.73
2019-05-12T21:11:20.926Z,101840.08
2019-05-12T21:13:51.412Z,101840.37
2019-05-12T21:16:30.904Z,101834.98
2019-05-12T21:19:02.123Z,101841.54
2019-05-12T21:21:33.158Z,101848.70
2019-05-12T21:23:59.423Z,101844.31
2019-05-12T21:26:34.754Z,101851.39
2019-05-12T21:29:04.722Z,101856.70
2019-05-12T21:31:35.633Z,101854.53
2019-05-12T21:34:06.863Z,101862.71
2019-05-12T21:36:37.351Z,101865.10
2019-05-12T21:39:10.384Z,101867.25
2019-05-12T21:41:46.380Z,101876.87
2019-05-12T21:44:14.219Z,101873.77
2019-05-12T21:46:57.413Z,101878.97
2019-05-12T21:49:17.013Z,101874.41
2019-05-12T21:51:50.549Z,101882.13
2019-05-12T21:54:20.616Z,101881.77
2019-05-12T21:56:51.389Z,101884.23
2019-05-12T21:59:23.342Z,101891.30
2019-05-12T22:01:54.194Z,101891.41
2019-05-12T22:04:24.694Z,101894.33
2019-05-12T22:06:56.963Z,101889.88
2019-05-12T22:09:34.979Z,101889.66
2019-05-12T22:12:00.007Z,101897.45
2019-05-12T22:14:38.659Z,101896.22
2019-05-12T22:17:04.551Z,101902.40
2019-05-12T22:19:38.087Z,101905.48
2019-05-12T22:22:07.850Z,101916.78
2019-05-12T22:24:39.089Z,101914.62
2019-05-12T22:27:16.145Z,101913.29
2019-05-12T22:29:43.683Z,101920.66
2019-05-12T22:32:19.163Z,101916.53
2019-05-12T22:34:47.117Z,101923.94
2019-05-12T22:37:17.909Z,101924.30
2019-05-12T22:39:48.343Z,101922.49
2019-05-12T22:42:21.678Z,101925.63
2019-05-12T22:44:53.018Z,101922.40
2019-05-12T22:47:24.072Z,101924.66
2019-05-12T22:49:56.932Z,101926.88
2019-05-12T22:52:27.861Z,101924.76
2019-05-12T22:54:58.287Z,101929.86
2019-05-12T22:57:29.117Z,101923.00
2019-05-12T23:00:03.834Z,101933.45
2019-05-12T23:02:33.837Z,101927.17
2019-05-12T23:05:05.136Z,101927.06
2019-05-12T23:07:35.560Z,101929.73
2019-05-12T23:10:11.030Z,101933.11
2019-05-12T23:12:39.580Z,101938.69
2019-05-12T23:15:10.473Z,101943.13
2019-05-12T23:17:45.388Z,101948.44
2019-05-12T23:20:13.823Z,101944.94
2019-05-12T23:22:44.684Z,101949.77
2019-05-12T23:25:20.012Z,101952.11
2019-05-12T23:27:47.693Z,101951.50
2019-05-12T23:30:18.116Z,101952.29
2019-05-12T23:32:51.507Z,101952.42
2019-05-12T23:35:21.374Z,101944.77
2019-05-12T23:37:53.591Z,101946.36
2019-05-12T23:40:24.226Z,101944.94
2019-05-12T23:42:54.979Z,101952.20
2019-05-12T23:45:25.409Z,101948.48
2019-05-12T23:47:56.556Z,101949.98
2019-05-12T23:50:26.990Z,101945.59
2019-05-12T23:52:57.505Z,101948.23
2019-05-12T23:55:28.805Z,101948.16
2019-05-12T23:58:00.386Z,101950.27
